createdAt,value
2019-02-24T00:04:08.063Z,3.77
2019-02-24T00:06:59.088Z,2.20
2019-02-24T00:09:42.939Z,4.65
2019-02-24T00:12:33.854Z,3.67
2019-02-24T00:15:17.447Z,3.60
2019-02-24T00:17:49.405Z,3.80
2019-02-24T00:20:33.314Z,4.00
2019-02-24T00:23:24.415Z,3.22
2019-02-24T00:25:56.315Z,2.62
2019-02-24T00:28:47.577Z,3.75
2019-02-24T00:31:31.497Z,4.50
2019-02-24T00:34:03.630Z,4.47
2019-02-24T00:36:47.371Z,4.50
2019-02-24T00:39:38.585Z,4.17
2019-02-24T00:42:29.906Z,4.08
2019-02-24T00:45:13.906Z,9.48
2019-02-24T00:48:05.030Z,11.75
2019-02-24T00:50:48.714Z,3.45
2019-02-24T00:53:40.189Z,3.60
2019-02-24T00:56:12.056Z,3.72
2019-02-24T00:58:43.965Z,3.37
2019-02-24T01:01:16.052Z,3.20
2019-02-24T01:04:07.235Z,3.62
2019-02-24T01:06:39.283Z,5.10
2019-02-24T01:09:30.453Z,4.20
2019-02-24T01:12:14.772Z,3.65
2019-02-24T01:15:06.683Z,2.87
2019-02-24T01:17:50.622Z,3.30
2019-02-24T01:20:34.088Z,2.70
2019-02-24T01:23:25.142Z,5.70
2019-02-24T01:26:08.691Z,3.70
2019-02-24T01:28:59.870Z,6.00
2019-02-24T01:31:43.940Z,2.83
2019-02-24T01:34:28.665Z,3.92
2019-02-24T01:37:19.780Z,3.30
2019-02-24T01:40:03.825Z,5.25
2019-02-24T01:42:54.977Z,2.50
2019-02-24T01:45:38.982Z,2.75
2019-02-24T01:48:21.253Z,5.42
2019-02-24T01:51:05.256Z,4.60
2019-02-24T01:53:49.241Z,3.20
2019-02-24T01:56:40.368Z,5.33
2019-02-24T01:59:24.075Z,9.15
2019-02-24T02:02:15.282Z,4.30
2019-02-24T02:04:59.186Z,4.65
2019-02-24T02:07:50.393Z,2.95
2019-02-24T02:10:33.896Z,4.75
2019-02-24T02:13:17.458Z,4.03
2019-02-24T02:16:00.944Z,4.22
2019-02-24T02:18:43.085Z,4.53
2019-02-24T02:21:26.864Z,6.37
2019-02-24T02:24:17.900Z,6.45
2019-02-24T02:27:01.508Z,5.55
2019-02-24T02:29:52.681Z,5.25
2019-02-24T02:32:36.664Z,3.98
2019-02-24T02:35:27.773Z,5.20
2019-02-24T02:38:11.584Z,3.45
2019-02-24T02:41:02.656Z,2.92
2019-02-24T02:43:47.269Z,4.45
2019-02-24T02:46:31.487Z,3.37
2019-02-24T02:49:15.061Z,4.40
2019-02-24T02:52:06.535Z,4.58
2019-02-24T02:54:50.348Z,5.70
2019-02-24T02:57:41.664Z,4.45
2019-02-24T03:00:29.031Z,3.77
2019-02-24T03:03:20.116Z,5.78
2019-02-24T03:06:28.540Z,4.10
2019-02-24T03:09:19.626Z,8.83
2019-02-24T03:12:03.345Z,4.17
2019-02-24T03:14:54.454Z,4.33
2019-02-24T03:17:38.365Z,6.03
2019-02-24T03:20:29.665Z,5.85
2019-02-24T03:23:12.898Z,6.72
2019-02-24T03:26:03.917Z,3.77
2019-02-24T03:28:47.988Z,5.58
2019-02-24T03:31:28.140Z,5.33
2019-02-24T03:34:19.503Z,5.40
2019-02-24T03:37:04.692Z,4.00
2019-02-24T03:39:49.174Z,5.65
2019-02-24T03:42:40.444Z,5.37
2019-02-24T03:45:24.641Z,4.37
2019-02-24T03:48:08.143Z,5.40
2019-02-24T03:50:59.340Z,7.22
2019-02-24T03:53:42.922Z,5.85
2019-02-24T03:56:34.041Z,5.08
2019-02-24T03:59:18.190Z,11.90
2019-02-24T04:02:02.384Z,17.27
2019-02-24T04:04:53.430Z,11.30
2019-02-24T04:07:36.831Z,9.83
2019-02-24T04:10:27.842Z,7.67
2019-02-24T04:13:12.206Z,3.70
2019-02-24T04:16:03.253Z,8.25
2019-02-24T04:18:47.378Z,3.72
2019-02-24T04:21:38.384Z,7.55
2019-02-24T04:24:22.464Z,4.50
2019-02-24T04:27:13.524Z,5.25
2019-02-24T04:29:57.372Z,3.85
2019-02-24T04:32:48.496Z,4.15
2019-02-24T04:35:32.397Z,3.83
2019-02-24T04:38:23.524Z,5.03
2019-02-24T04:41:07.782Z,5.42
2019-02-24T04:43:58.790Z,6.75
2019-02-24T04:46:30.630Z,4.72
2019-02-24T04:49:13.222Z,4.05
2019-02-24T04:51:56.725Z,3.85
2019-02-24T04:54:47.828Z,5.62
2019-02-24T04:57:31.462Z,4.92
2019-02-24T05:00:23.713Z,5.53
2019-02-24T05:03:07.475Z,5.30
2019-02-24T05:05:58.670Z,5.87
2019-02-24T05:08:42.450Z,5.05
2019-02-24T05:11:33.520Z,4.62
2019-02-24T05:14:17.040Z,4.92
2019-02-24T05:17:08.194Z,6.00
2019-02-24T05:19:51.817Z,6.33
2019-02-24T05:22:43.090Z,5.17
2019-02-24T05:25:26.555Z,5.30
2019-02-24T05:28:17.657Z,3.47
2019-02-24T05:30:49.648Z,5.03
2019-02-24T05:33:40.710Z,4.97
2019-02-24T05:36:24.783Z,4.22
2019-02-24T05:39:15.845Z,3.80
2019-02-24T05:41:59.538Z,5.60
2019-02-24T05:44:50.533Z,4.87
2019-02-24T05:47:34.364Z,5.70
2019-02-24T05:50:25.556Z,5.65
2019-02-24T05:53:09.640Z,3.95
2019-02-24T05:56:00.852Z,4.83
2019-02-24T05:58:44.578Z,4.45
2019-02-24T06:01:35.649Z,5.33
2019-02-24T06:04:19.887Z,4.22
2019-02-24T06:07:10.912Z,3.85
2019-02-24T06:09:54.899Z,5.20
2019-02-24T06:12:38.245Z,3.85
2019-02-24T06:15:10.286Z,6.30
2019-02-24T06:17:55.035Z,6.25
2019-02-24T06:20:46.097Z,4.92
2019-02-24T06:23:31.361Z,4.92
2019-02-24T06:26:14.497Z,4.62
2019-02-24T06:28:58.522Z,5.60
2019-02-24T06:31:49.562Z,6.75
2019-02-24T06:34:33.611Z,3.30
2019-02-24T06:37:24.822Z,5.67
2019-02-24T06:40:08.886Z,3.60
2019-02-24T06:42:59.946Z,6.00
2019-02-24T06:45:44.496Z,2.75
2019-02-24T06:48:28.404Z,3.85
2019-02-24T06:51:13.439Z,5.08
2019-02-24T06:53:58.093Z,4.85
2019-02-24T06:56:49.110Z,3.67
2019-02-24T06:59:33.085Z,4.62
2019-02-24T07:02:24.260Z,4.00
2019-02-24T07:05:08.130Z,5.30
2019-02-24T07:08:00.195Z,5.75
2019-02-24T07:10:43.975Z,6.62
2019-02-24T07:13:35.080Z,6.87
2019-02-24T07:16:19.207Z,10.85
2019-02-24T07:19:10.245Z,4.45
2019-02-24T07:21:54.158Z,4.92
2019-02-24T07:24:45.322Z,5.55
2019-02-24T07:27:28.808Z,3.42
2019-02-24T07:30:12.859Z,4.10
2019-02-24T07:33:03.920Z,6.05
2019-02-24T07:35:47.959Z,6.15
2019-02-24T07:38:40.007Z,5.30
2019-02-24T07:41:23.411Z,6.47
2019-02-24T07:44:14.494Z,5.28
2019-02-24T07:46:58.018Z,5.30
2019-02-24T07:49:41.356Z,5.25
2019-02-24T07:52:25.308Z,5.08
2019-02-24T07:55:16.400Z,6.45
2019-02-24T07:58:00.068Z,4.35
2019-02-24T08:00:43.848Z,4.40
2019-02-24T08:03:34.902Z,4.90
2019-02-24T08:06:18.829Z,3.85
2019-02-24T08:08:50.840Z,3.20
2019-02-24T08:11:22.823Z,6.97
2019-02-24T08:13:54.924Z,3.98
2019-02-24T08:16:26.888Z,5.75
2019-02-24T08:18:58.939Z,4.60
2019-02-24T08:21:31.189Z,4.45
2019-02-24T08:24:03.283Z,4.95
2019-02-24T08:26:35.254Z,7.12
2019-02-24T08:29:07.307Z,5.70
2019-02-24T08:31:39.120Z,5.17
2019-02-24T08:34:11.712Z,5.47
2019-02-24T08:36:44.041Z,4.87
2019-02-24T08:39:16.113Z,7.28
2019-02-24T08:41:48.352Z,6.92
2019-02-24T08:44:22.166Z,5.33
2019-02-24T08:46:54.264Z,5.33
2019-02-24T08:49:26.318Z,5.62
2019-02-24T08:51:58.460Z,5.85
2019-02-24T08:54:31.656Z,4.90
2019-02-24T08:57:03.705Z,6.53
2019-02-24T08:59:35.849Z,4.25
2019-02-24T09:02:07.847Z,4.17
2019-02-24T09:04:39.869Z,5.80
2019-02-24T09:07:11.851Z,6.25
2019-02-24T09:09:49.877Z,5.40
2019-02-24T09:12:21.854Z,6.12
2019-02-24T09:14:53.928Z,5.00
2019-02-24T09:17:25.900Z,4.50
2019-02-24T09:19:58.011Z,5.37
2019-02-24T09:22:30.011Z,6.30
2019-02-24T09:25:03.387Z,3.80
2019-02-24T09:27:35.532Z,6.55
2019-02-24T09:30:09.395Z,6.25
2019-02-24T09:32:41.642Z,4.47
2019-02-24T09:35:13.753Z,4.05
2019-02-24T09:37:45.718Z,6.10
2019-02-24T09:40:17.731Z,3.80
2019-02-24T09:42:49.864Z,4.47
2019-02-24T09:45:22.014Z,5.08
2019-02-24T09:47:53.970Z,5.80
2019-02-24T09:50:26.100Z,4.42
2019-02-24T09:52:58.249Z,3.80
2019-02-24T09:55:30.412Z,9.13
2019-02-24T09:58:02.370Z,4.58
2019-02-24T10:00:34.475Z,4.90
2019-02-24T10:03:06.581Z,5.60
2019-02-24T10:05:39.084Z,4.72
2019-02-24T10:08:12.041Z,4.60
2019-02-24T10:10:44.166Z,5.22
2019-02-24T10:13:15.927Z,4.17
2019-02-24T10:15:47.926Z,4.22
2019-02-24T10:18:19.879Z,4.47
2019-02-24T10:20:51.845Z,5.12
2019-02-24T10:23:23.852Z,4.80
2019-02-24T10:25:55.981Z,3.33
2019-02-24T10:28:28.096Z,4.00
2019-02-24T10:31:01.612Z,4.33
2019-02-24T10:33:34.032Z,6.40
2019-02-24T10:36:06.093Z,3.70
2019-02-24T10:38:38.045Z,4.60
2019-02-24T10:41:10.035Z,4.12
2019-02-24T10:43:41.961Z,4.37
2019-02-24T10:46:14.100Z,4.20
2019-02-24T10:48:46.201Z,4.33
2019-02-24T10:51:18.278Z,4.35
2019-02-24T10:53:50.206Z,3.20
2019-02-24T10:56:22.181Z,4.03
2019-02-24T10:58:54.476Z,3.92
2019-02-24T11:01:29.624Z,7.50
2019-02-24T11:04:00.502Z,4.50
2019-02-24T11:06:32.507Z,4.83
2019-02-24T11:09:04.889Z,3.70
2019-02-24T11:11:37.452Z,7.72
2019-02-24T11:14:09.585Z,5.37
2019-02-24T11:16:41.890Z,6.15
2019-02-24T11:19:13.990Z,3.90
2019-02-24T11:21:46.057Z,5.67
2019-02-24T11:24:18.073Z,6.05
2019-02-24T11:26:50.191Z,5.00
2019-02-24T11:29:22.317Z,4.30
2019-02-24T11:31:54.443Z,3.75
2019-02-24T11:34:26.491Z,5.42
2019-02-24T11:36:58.563Z,3.90
2019-02-24T11:39:30.701Z,5.45
2019-02-24T11:42:02.895Z,4.70
2019-02-24T11:44:34.965Z,3.80
2019-02-24T11:47:07.252Z,3.87
2019-02-24T11:49:39.199Z,6.58
2019-02-24T11:52:12.386Z,4.33
2019-02-24T11:54:44.438Z,7.90
2019-02-24T11:57:16.625Z,4.55
2019-02-24T11:59:49.076Z,6.30
2019-02-24T12:02:21.220Z,9.53
2019-02-24T12:04:53.418Z,4.12
2019-02-24T12:07:25.420Z,5.65
2019-02-24T12:09:59.677Z,5.10
2019-02-24T12:12:31.855Z,5.17
2019-02-24T12:15:03.955Z,4.62
2019-02-24T12:17:36.814Z,5.20
2019-02-24T12:20:10.904Z,3.87
2019-02-24T12:22:42.779Z,4.67
2019-02-24T12:25:14.689Z,4.42
2019-02-24T12:27:46.812Z,5.15
2019-02-24T12:30:19.174Z,3.87
2019-02-24T12:32:51.170Z,5.12
2019-02-24T12:35:23.246Z,3.62
2019-02-24T12:37:55.236Z,4.35
2019-02-24T12:40:27.310Z,6.20
2019-02-24T12:42:59.324Z,4.47
2019-02-24T12:45:31.259Z,5.72
2019-02-24T12:48:03.286Z,3.92
2019-02-24T12:50:35.335Z,4.37
2019-02-24T12:53:07.919Z,4.40
2019-02-24T12:55:39.789Z,5.10
2019-02-24T12:58:11.882Z,4.42
2019-02-24T13:00:43.964Z,4.33
2019-02-24T13:03:23.740Z,4.47
2019-02-24T13:05:49.547Z,3.92
2019-02-24T13:08:21.601Z,3.62
2019-02-24T13:10:53.670Z,3.47
2019-02-24T13:13:25.725Z,3.80
2019-02-24T13:15:57.650Z,4.00
2019-02-24T13:18:29.677Z,3.80
2019-02-24T13:21:01.723Z,4.28
2019-02-24T13:23:35.266Z,3.10
2019-02-24T13:26:07.307Z,4.42
2019-02-24T13:28:50.213Z,3.95
2019-02-24T13:31:13.280Z,4.05
2019-02-24T13:33:45.233Z,3.98
2019-02-24T13:36:17.355Z,5.60
2019-02-24T13:38:49.316Z,4.05
2019-02-24T13:41:21.332Z,5.37
2019-02-24T13:43:53.386Z,11.00
2019-02-24T13:46:25.420Z,7.12
2019-02-24T13:48:57.470Z,4.08
2019-02-24T13:51:29.318Z,3.75
2019-02-24T13:54:01.572Z,5.15
2019-02-24T13:56:33.829Z,5.75
2019-02-24T13:59:05.960Z,5.15
2019-02-24T14:01:38.107Z,3.90
2019-02-24T14:04:10.223Z,3.75
2019-02-24T14:06:42.589Z,3.30
2019-02-24T14:09:14.655Z,3.65
2019-02-24T14:11:46.615Z,3.15
2019-02-24T14:14:19.706Z,5.75
2019-02-24T14:16:54.134Z,3.27
2019-02-24T14:19:25.967Z,3.33
2019-02-24T14:21:58.101Z,11.88
2019-02-24T14:24:30.075Z,3.50
2019-02-24T14:27:03.004Z,3.65
2019-02-24T14:29:34.976Z,3.62
2019-02-24T14:32:08.067Z,3.70
2019-02-24T14:34:40.146Z,4.00
2019-02-24T14:37:12.291Z,3.98
2019-02-24T14:39:44.252Z,3.80
2019-02-24T14:42:16.392Z,4.00
2019-02-24T14:44:48.340Z,3.10
2019-02-24T14:47:20.452Z,6.90
2019-02-24T14:49:52.552Z,2.98
2019-02-24T14:52:24.655Z,4.60
2019-02-24T14:54:56.724Z,4.97
2019-02-24T14:57:28.806Z,4.62
2019-02-24T15:00:01.834Z,4.58
2019-02-24T15:02:42.240Z,4.55
2019-02-24T15:05:09.380Z,4.87
2019-02-24T15:07:41.508Z,4.50
2019-02-24T15:10:15.034Z,4.15
2019-02-24T15:12:47.176Z,6.20
2019-02-24T15:15:19.828Z,5.17
2019-02-24T15:17:51.845Z,3.83
2019-02-24T15:20:24.042Z,4.90
2019-02-24T15:22:56.066Z,3.25
2019-02-24T15:25:28.188Z,4.25
2019-02-24T15:28:00.220Z,4.90
2019-02-24T15:30:32.957Z,3.10
2019-02-24T15:33:05.090Z,4.22
2019-02-24T15:35:36.861Z,5.75
2019-02-24T15:38:09.050Z,6.75
2019-02-24T15:40:41.139Z,5.37
2019-02-24T15:43:13.513Z,4.92
2019-02-24T15:45:45.537Z,4.83
2019-02-24T15:48:17.610Z,4.10
2019-02-24T15:50:49.967Z,4.35
2019-02-24T15:53:21.893Z,4.05
2019-02-24T15:55:53.945Z,3.98
2019-02-24T15:58:26.217Z,6.17
2019-02-24T16:00:58.204Z,4.58
2019-02-24T16:03:30.705Z,6.28
2019-02-24T16:06:02.866Z,3.35
2019-02-24T16:08:34.953Z,9.03
2019-02-24T16:11:06.847Z,4.28
2019-02-24T16:13:38.967Z,7.50
2019-02-24T16:16:11.023Z,3.58
2019-02-24T16:18:42.977Z,3.55
2019-02-24T16:21:14.789Z,5.53
2019-02-24T16:23:46.890Z,4.10
2019-02-24T16:26:18.870Z,3.72
2019-02-24T16:28:50.837Z,5.28
2019-02-24T16:31:22.866Z,4.60
2019-02-24T16:33:54.971Z,5.92
2019-02-24T16:36:27.009Z,4.67
2019-02-24T16:38:58.922Z,7.97
2019-02-24T16:41:31.141Z,5.45
2019-02-24T16:44:03.122Z,6.50
2019-02-24T16:46:35.152Z,5.97
2019-02-24T16:49:07.150Z,6.20
2019-02-24T16:51:39.172Z,4.97
2019-02-24T16:54:11.127Z,6.15
2019-02-24T16:56:43.185Z,6.58
2019-02-24T16:59:15.229Z,6.30
2019-02-24T17:01:47.192Z,6.55
2019-02-24T17:04:19.331Z,7.45
2019-02-24T17:06:51.394Z,5.35
2019-02-24T17:09:23.354Z,5.33
2019-02-24T17:11:55.419Z,7.08
2019-02-24T17:14:27.471Z,10.88
2019-02-24T17:17:01.807Z,6.30
2019-02-24T17:19:33.138Z,5.08
2019-02-24T17:22:05.205Z,5.05
2019-02-24T17:24:37.268Z,3.22
2019-02-24T17:27:09.289Z,6.22
2019-02-24T17:29:41.292Z,5.33
2019-02-24T17:32:13.416Z,5.12
2019-02-24T17:34:45.419Z,3.65
2019-02-24T17:37:20.199Z,3.30
2019-02-24T17:39:51.823Z,3.40
2019-02-24T17:42:24.738Z,4.70
2019-02-24T17:44:56.870Z,4.50
2019-02-24T17:47:29.118Z,3.25
2019-02-24T17:50:01.349Z,7.22
2019-02-24T17:52:33.456Z,6.65
2019-02-24T17:55:06.037Z,6.20
2019-02-24T17:57:38.142Z,4.70
2019-02-24T18:00:21.374Z,4.75
2019-02-24T18:02:53.275Z,3.77
2019-02-24T18:05:25.273Z,13.00
2019-02-24T18:07:57.571Z,4.42
2019-02-24T18:10:29.575Z,5.95
2019-02-24T18:13:01.681Z,5.87
2019-02-24T18:15:34.147Z,4.05
2019-02-24T18:18:06.430Z,7.78
2019-02-24T18:20:39.376Z,4.33
2019-02-24T18:23:11.482Z,8.20
2019-02-24T18:25:43.615Z,8.18
2019-02-24T18:28:15.751Z,6.40
2019-02-24T18:30:47.944Z,6.25
2019-02-24T18:33:20.208Z,5.10
2019-02-24T18:35:52.196Z,4.97
2019-02-24T18:38:24.305Z,7.47
2019-02-24T18:40:56.471Z,8.18
2019-02-24T18:43:28.487Z,7.95
2019-02-24T18:46:00.509Z,7.75
2019-02-24T18:48:32.316Z,7.47
2019-02-24T18:51:04.306Z,5.00
2019-02-24T18:53:36.357Z,10.48
2019-02-24T18:56:08.350Z,26.65
2019-02-24T18:58:40.392Z,20.37
2019-02-24T19:01:12.404Z,10.23
2019-02-24T19:03:44.370Z,12.00
2019-02-24T19:06:16.491Z,10.35
2019-02-24T19:08:48.551Z,9.48
2019-02-24T19:11:20.467Z,10.93
2019-02-24T19:13:52.486Z,10.05
2019-02-24T19:16:24.509Z,10.60
2019-02-24T19:18:56.536Z,9.38
2019-02-24T19:21:29.546Z,13.78
2019-02-24T19:24:01.598Z,9.58
2019-02-24T19:26:33.634Z,10.10
2019-02-24T19:29:05.705Z,10.85
2019-02-24T19:31:37.647Z,10.05
2019-02-24T19:34:09.725Z,9.70
2019-02-24T19:36:41.699Z,12.60
2019-02-24T19:39:15.982Z,12.25
2019-02-24T19:41:48.326Z,10.63
2019-02-24T19:44:20.390Z,12.13
2019-02-24T19:46:52.395Z,12.40
2019-02-24T19:49:24.508Z,16.93
2019-02-24T19:51:56.473Z,27.60
2019-02-24T19:54:28.513Z,14.47
2019-02-24T19:57:00.551Z,14.80
2019-02-24T19:59:32.672Z,16.77
2019-02-24T20:02:04.669Z,26.40
2019-02-24T20:04:37.012Z,16.75
2019-02-24T20:07:09.315Z,9.30
2019-02-24T20:09:41.313Z,16.40
2019-02-24T20:12:13.248Z,18.15
2019-02-24T20:14:45.250Z,12.53
2019-02-24T20:17:17.289Z,9.33
2019-02-24T20:19:49.388Z,9.15
2019-02-24T20:22:21.507Z,8.43
2019-02-24T20:24:53.553Z,13.40
2019-02-24T20:27:25.649Z,9.18
2019-02-24T20:29:57.950Z,12.40
2019-02-24T20:32:30.112Z,10.90
2019-02-24T20:35:02.304Z,10.03
2019-02-24T20:37:34.251Z,12.63
2019-02-24T20:40:07.004Z,8.98
2019-02-24T20:42:39.027Z,7.92
2019-02-24T20:45:12.561Z,10.18
2019-02-24T20:47:44.787Z,7.75
2019-02-24T20:50:18.239Z,6.58
2019-02-24T20:52:50.479Z,5.95
2019-02-24T20:55:22.719Z,6.40
2019-02-24T20:57:54.704Z,8.05
2019-02-24T21:00:30.574Z,15.88
2019-02-24T21:03:02.596Z,15.80
2019-02-24T21:05:34.818Z,13.38
2019-02-24T21:08:08.064Z,10.98
2019-02-24T21:10:40.188Z,13.93
2019-02-24T21:13:12.318Z,10.82
2019-02-24T21:15:44.344Z,12.70
2019-02-24T21:18:16.515Z,10.38
2019-02-24T21:20:48.600Z,7.92
2019-02-24T21:23:20.683Z,8.30
2019-02-24T21:25:52.702Z,13.50
2019-02-24T21:28:24.892Z,7.45
2019-02-24T21:30:57.145Z,7.33
2019-02-24T21:33:29.302Z,12.37
2019-02-24T21:36:01.418Z,11.85
2019-02-24T21:38:33.352Z,8.88
2019-02-24T21:41:05.407Z,9.13
2019-02-24T21:43:37.671Z,11.00
2019-02-24T21:46:09.635Z,10.18
2019-02-24T21:48:42.585Z,9.68
2019-02-24T21:51:14.613Z,8.03
2019-02-24T21:53:46.845Z,12.85
2019-02-24T21:56:18.822Z,12.55
2019-02-24T21:58:51.017Z,11.90
2019-02-24T22:01:23.043Z,11.05
2019-02-24T22:03:55.024Z,9.20
2019-02-24T22:06:27.147Z,13.60
2019-02-24T22:08:59.169Z,10.10
2019-02-24T22:11:31.316Z,9.10
2019-02-24T22:14:03.399Z,7.87
2019-02-24T22:16:35.277Z,10.28
2019-02-24T22:19:10.610Z,6.92
2019-02-24T22:21:42.693Z,9.40
2019-02-24T22:24:14.636Z,9.30
2019-02-24T22:26:46.730Z,9.10
2019-02-24T22:29:18.746Z,11.68
2019-02-24T22:31:50.804Z,10.60
2019-02-24T22:34:22.596Z,14.53
2019-02-24T22:36:54.588Z,8.83
2019-02-24T22:39:26.681Z,13.03
2019-02-24T22:41:58.747Z,7.75
2019-02-24T22:44:30.781Z,6.62
2019-02-24T22:47:02.593Z,11.03
2019-02-24T22:49:34.544Z,11.30
2019-02-24T22:52:06.593Z,10.05
2019-02-24T22:54:38.595Z,12.35
2019-02-24T22:57:10.753Z,14.58
2019-02-24T22:59:42.906Z,8.70
2019-02-24T23:02:15.779Z,8.58
2019-02-24T23:04:49.335Z,6.65
2019-02-24T23:07:22.317Z,12.30
2019-02-24T23:09:54.281Z,9.60
2019-02-24T23:12:26.199Z,13.28
2019-02-24T23:14:58.215Z,8.98
2019-02-24T23:17:30.176Z,11.95
2019-02-24T23:20:02.152Z,11.08
2019-02-24T23:22:35.649Z,9.23
2019-02-24T23:25:07.702Z,9.30
2019-02-24T23:27:39.711Z,9.18
2019-02-24T23:30:11.751Z,13.03
2019-02-24T23:32:43.670Z,7.33
2019-02-24T23:35:16.084Z,10.43
2019-02-24T23:37:48.708Z,11.33
2019-02-24T23:40:20.735Z,9.25
2019-02-24T23:42:52.582Z,12.37
2019-02-24T23:45:24.651Z,11.70
2019-02-24T23:47:56.642Z,9.83
2019-02-24T23:50:29.053Z,11.43
2019-02-24T23:53:02.174Z,8.73
2019-02-24T23:55:34.167Z,11.53
2019-02-24T23:58:06.280Z,8.50
